Time;durP1;ratioP1;P1;durP2;ratioP2;P2;SDS_P1;SDS_P2;PMS_P1;PMS_P2;Temp;Humidity;BMP_temperature;BMP_pressure;BME280_temperature;BME280_humidity;BME280_pressure;Samples;Min_cycle;Max_cycle;Signal;HPM_P1;HPM_P2
2022/03/08 00:00:27;;;;;;;27.63;11.20;;;3.80;99.90;;;;;;5016547;28;20088;-76
2022/03/08 00:02:54;;;;;;;24.85;10.18;;;3.80;99.90;;;;;;5018813;28;20034;-77
2022/03/08 00:05:20;;;;;;;24.00;10.43;;;3.90;99.90;;;;;;5018458;28;20033;-76
2022/03/08 00:07:46;;;;;;;27.00;10.63;;;3.70;99.90;;;;;;5020581;28;20030;-78
2022/03/08 00:10:13;;;;;;;24.25;10.27;;;3.70;99.90;;;;;;5021171;28;20451;-78
2022/03/08 00:12:38;;;;;;;27.38;11.95;;;3.70;99.90;;;;;;5019107;28;20101;-76
2022/03/08 00:15:15;;;;;;;23.92;10.60;;;3.60;99.90;;;;;;5002889;28;20049;-77
2022/03/08 00:17:41;;;;;;;29.08;11.15;;;3.60;99.90;;;;;;5019247;28;20026;-78
2022/03/08 00:20:08;;;;;;;23.23;10.43;;;3.50;99.90;;;;;;5024328;28;20072;-77
2022/03/08 00:22:35;;;;;;;27.73;10.32;;;3.50;99.90;;;;;;5018362;28;20052;-76
2022/03/08 00:25:02;;;;;;;17.98;8.88;;;3.40;99.90;;;;;;5019749;28;20022;-78
2022/03/08 00:27:28;;;;;;;22.98;9.50;;;3.40;99.90;;;;;;5016257;28;20052;-77
2022/03/08 00:29:54;;;;;;;26.20;10.15;;;3.40;99.90;;;;;;5018829;28;20030;-79
2022/03/08 00:32:19;;;;;;;21.95;9.50;;;3.40;99.90;;;;;;5001301;28;20029;-77
2022/03/08 00:34:45;;;;;;;29.80;10.68;;;3.40;99.90;;;;;;5020050;28;20048;-78
2022/03/08 00:37:11;;;;;;;29.42;11.45;;;3.50;99.90;;;;;;5021944;28;20026;-78
2022/03/08 00:39:36;;;;;;;22.10;10.90;;;3.40;99.90;;;;;;5019704;28;20068;-76
2022/03/08 00:42:02;;;;;;;22.90;10.63;;;3.40;99.90;;;;;;5002057;28;20533;-78
2022/03/08 00:44:28;;;;;;;26.58;10.43;;;3.30;99.90;;;;;;5022415;28;20109;-76
2022/03/08 00:46:53;;;;;;;21.60;9.98;;;3.30;99.90;;;;;;5016857;28;20022;-77
2022/03/08 00:49:19;;;;;;;21.75;9.43;;;3.30;99.90;;;;;;5019610;28;20034;-78
2022/03/08 00:51:45;;;;;;;22.42;10.00;;;3.20;99.90;;;;;;5021412;28;20029;-73
2022/03/08 00:54:10;;;;;;;19.60;8.65;;;3.10;99.90;;;;;;5027383;28;20033;-76
2022/03/08 00:56:36;;;;;;;27.90;10.32;;;3.10;99.90;;;;;;5017026;28;20379;-77
2022/03/08 00:59:02;;;;;;;26.13;10.98;;;2.90;99.90;;;;;;5017677;28;20033;-76
2022/03/08 01:01:27;;;;;;;23.50;9.63;;;2.90;99.90;;;;;;5016856;28;20495;-74
2022/03/08 01:03:53;;;;;;;21.15;9.88;;;2.80;99.90;;;;;;5017449;28;20026;-79
2022/03/08 01:06:18;;;;;;;20.60;10.13;;;2.80;99.90;;;;;;5016740;28;20422;-74
2022/03/08 01:08:44;;;;;;;24.52;10.80;;;2.70;99.90;;;;;;4997348;28;20034;-75
2022/03/08 01:11:10;;;;;;;22.55;10.32;;;2.80;99.90;;;;;;5014959;28;20022;-75
2022/03/08 01:13:35;;;;;;;22.23;10.32;;;2.80;99.90;;;;;;5014269;28;20034;-75
2022/03/08 01:16:01;;;;;;;19.02;10.25;;;2.90;99.90;;;;;;5014483;28;20108;-76
2022/03/08 01:18:26;;;;;;;17.52;9.90;;;2.90;99.90;;;;;;4997009;28;20022;-75
2022/03/08 01:20:52;;;;;;;22.90;10.60;;;2.80;99.90;;;;;;5017118;28;20081;-75
2022/03/08 01:23:18;;;;;;;24.23;10.27;;;2.80;99.90;;;;;;5014782;28;20026;-74
2022/03/08 01:25:43;;;;;;;20.60;10.40;;;2.70;99.90;;;;;;5014166;28;20097;-75
2022/03/08 01:28:09;;;;;;;25.33;10.98;;;2.60;99.90;;;;;;4996981;28;20491;-75
2022/03/08 01:30:34;;;;;;;22.85;10.52;;;2.50;99.90;;;;;;5015294;28;20036;-75
2022/03/08 01:33:00;;;;;;;28.20;11.38;;;2.50;99.90;;;;;;5015463;28;20041;-73
2022/03/08 01:35:26;;;;;;;23.80;9.70;;;2.50;99.90;;;;;;5015126;28;20030;-75
2022/03/08 01:37:52;;;;;;;25.42;11.38;;;2.60;99.90;;;;;;5017447;28;20030;-75
2022/03/08 01:40:18;;;;;;;21.42;9.60;;;2.60;99.90;;;;;;5024115;28;20094;-75
2022/03/08 01:42:49;;;;;;;24.48;10.15;;;2.60;99.90;;;;;;5024279;28;20030;-75
2022/03/08 01:45:17;;;;;;;25.83;10.98;;;2.50;99.90;;;;;;5019277;28;20072;-76
2022/03/08 01:47:42;;;;;;;23.77;10.95;;;2.40;99.90;;;;;;4996849;28;20033;-75
2022/03/08 01:50:10;;;;;;;26.92;11.77;;;2.30;99.90;;;;;;5014077;28;20116;-75
2022/03/08 01:52:38;;;;;;;29.88;12.25;;;2.30;99.90;;;;;;5014127;28;20041;-75
2022/03/08 01:55:04;;;;;;;33.58;13.70;;;2.40;99.90;;;;;;5013823;28;20097;-74
2022/03/08 01:57:30;;;;;;;35.13;14.07;;;2.40;99.90;;;;;;5014747;28;20025;-75
2022/03/08 01:59:56;;;;;;;39.58;15.02;;;2.30;99.90;;;;;;5014358;28;20034;-75
2022/03/08 02:02:22;;;;;;;48.63;18.67;;;2.30;99.90;;;;;;5014294;28;20025;-74
2022/03/08 02:04:49;;;;;;;40.70;17.23;;;2.20;99.90;;;;;;5013354;28;20410;-74
2022/03/08 02:07:14;;;;;;;25.23;11.70;;;2.20;99.90;;;;;;5013715;28;20038;-75
2022/03/08 02:09:40;;;;;;;33.53;14.02;;;2.20;99.90;;;;;;5013878;28;20044;-74
2022/03/08 02:12:07;;;;;;;31.38;13.10;;;2.30;99.90;;;;;;5013909;28;20498;-74
2022/03/08 02:14:32;;;;;;;40.28;16.45;;;2.30;99.90;;;;;;5014007;28;20108;-73
2022/03/08 02:16:58;;;;;;;29.30;14.23;;;2.20;99.90;;;;;;5014607;28;20065;-75
2022/03/08 02:19:23;;;;;;;32.28;13.15;;;2.20;99.90;;;;;;5014667;28;20026;-75
2022/03/08 02:21:50;;;;;;;32.85;12.80;;;2.10;99.90;;;;;;5014221;28;20520;-75
2022/03/08 02:24:16;;;;;;;33.05;12.48;;;2.00;99.90;;;;;;5014823;28;20057;-75
2022/03/08 02:26:42;;;;;;;29.17;12.57;;;2.00;99.90;;;;;;5013492;28;20018;-75
2022/03/08 02:29:09;;;;;;;33.40;13.13;;;2.00;99.90;;;;;;5013577;28;20037;-74
2022/03/08 02:31:35;;;;;;;34.72;12.93;;;2.00;99.90;;;;;;5015876;28;20021;-74
2022/03/08 02:34:01;;;;;;;29.02;12.95;;;2.00;99.90;;;;;;5001065;28;20018;-75
2022/03/08 02:36:27;;;;;;;28.70;12.63;;;2.10;99.90;;;;;;5019579;28;20430;-74
2022/03/08 02:38:52;;;;;;;33.28;12.60;;;2.00;99.90;;;;;;5013584;28;20029;-74
2022/03/08 02:41:18;;;;;;;32.45;12.98;;;2.00;99.90;;;;;;5014211;28;20030;-74
2022/03/08 02:43:44;;;;;;;27.67;12.02;;;2.00;99.90;;;;;;5014440;28;20033;-74
2022/03/08 02:46:10;;;;;;;27.27;12.05;;;2.10;99.90;;;;;;4995530;28;20116;-75
2022/03/08 02:48:35;;;;;;;23.90;11.48;;;2.10;99.90;;;;;;5013359;28;20033;-76
2022/03/08 02:51:01;;;;;;;26.80;11.55;;;2.10;99.90;;;;;;5013829;28;20029;-73
2022/03/08 02:53:27;;;;;;;26.98;11.68;;;2.10;99.90;;;;;;4995498;28;20532;-75
2022/03/08 02:55:52;;;;;;;26.80;12.23;;;2.00;99.90;;;;;;5012752;28;20083;-74
2022/03/08 02:58:18;;;;;;;25.83;11.90;;;2.00;99.90;;;;;;5013175;28;20033;-75
2022/03/08 03:00:44;;;;;;;28.25;12.73;;;2.00;99.90;;;;;;4995550;28;20021;-74
2022/03/08 03:03:10;;;;;;;29.30;12.30;;;1.90;99.90;;;;;;5013328;28;20029;-75
2022/03/08 03:05:36;;;;;;;28.80;12.50;;;1.90;99.90;;;;;;5016350;28;20041;-75
2022/03/08 03:08:03;;;;;;;34.60;13.35;;;1.90;99.90;;;;;;5017996;28;20030;-74
2022/03/08 03:10:29;;;;;;;32.55;13.15;;;1.90;99.90;;;;;;5016633;28;20026;-73
2022/03/08 03:12:55;;;;;;;31.55;12.40;;;1.80;99.90;;;;;;5013438;28;20399;-76
2022/03/08 03:15:22;;;;;;;30.48;12.93;;;1.80;99.90;;;;;;4997459;28;20486;-77
2022/03/08 03:17:49;;;;;;;30.52;13.68;;;1.70;99.90;;;;;;5016408;28;20114;-76
2022/03/08 03:20:17;;;;;;;29.55;13.07;;;1.70;99.90;;;;;;5015199;28;20105;-77
2022/03/08 03:22:43;;;;;;;28.85;12.85;;;1.70;99.90;;;;;;5015746;28;20018;-75
2022/03/08 03:25:10;;;;;;;30.27;12.52;;;1.50;99.90;;;;;;5014196;28;20022;-77
2022/03/08 03:27:36;;;;;;;32.40;13.98;;;1.60;99.90;;;;;;5014101;28;20100;-76
2022/03/08 03:30:04;;;;;;;33.90;13.45;;;1.60;99.90;;;;;;5013476;28;20062;-76
2022/03/08 03:32:29;;;;;;;28.40;13.00;;;1.50;99.90;;;;;;4997318;28;20029;-75
2022/03/08 03:34:55;;;;;;;38.95;13.52;;;1.50;99.90;;;;;;5012836;28;20030;-75
2022/03/08 03:37:21;;;;;;;30.92;13.98;;;1.50;99.90;;;;;;5015391;28;20109;-76
2022/03/08 03:39:46;;;;;;;31.98;13.15;;;1.50;99.90;;;;;;5016480;28;20510;-75
2022/03/08 03:42:12;;;;;;;28.55;13.27;;;1.40;99.90;;;;;;5017178;28;20042;-75
2022/03/08 03:44:37;;;;;;;30.70;13.15;;;1.40;99.90;;;;;;5007304;28;20037;-75
2022/03/08 03:47:03;;;;;;;28.00;12.90;;;1.40;99.90;;;;;;5022694;28;20387;-77
2022/03/08 03:49:29;;;;;;;26.80;13.02;;;1.40;99.90;;;;;;5019596;28;20097;-76
2022/03/08 03:51:55;;;;;;;27.55;13.55;;;1.50;99.90;;;;;;5016833;28;20045;-76
2022/03/08 03:54:21;;;;;;;29.02;13.93;;;1.50;99.90;;;;;;5016339;28;20049;-76
2022/03/08 03:56:47;;;;;;;28.65;13.38;;;1.50;99.90;;;;;;5018131;28;20018;-74
2022/03/08 03:59:13;;;;;;;29.23;14.02;;;1.50;99.90;;;;;;5000116;28;20088;-77
2022/03/08 04:01:38;;;;;;;28.50;13.45;;;1.40;99.90;;;;;;5017005;28;20034;-76
2022/03/08 04:04:04;;;;;;;27.63;13.40;;;1.30;99.90;;;;;;5018054;28;20025;-77
2022/03/08 04:06:30;;;;;;;32.85;14.65;;;1.30;99.90;;;;;;5016450;28;20045;-77
2022/03/08 04:08:56;;;;;;;30.90;14.85;;;1.20;99.90;;;;;;5017078;28;20033;-76
2022/03/08 04:11:21;;;;;;;34.25;14.20;;;1.20;99.90;;;;;;5027794;28;20029;-78
2022/03/08 04:13:47;;;;;;;32.22;14.98;;;1.20;99.90;;;;;;5016573;28;20076;-78
2022/03/08 04:16:12;;;;;;;29.38;13.60;;;1.30;99.90;;;;;;5019139;28;20026;-76
2022/03/08 04:18:38;;;;;;;27.70;13.98;;;1.30;99.90;;;;;;5021379;28;20076;-77
2022/03/08 04:21:04;;;;;;;32.03;13.93;;;1.30;99.90;;;;;;5017281;28;20017;-77
2022/03/08 04:23:29;;;;;;;38.53;14.13;;;1.30;99.90;;;;;;5017738;28;20025;-77
2022/03/08 04:25:55;;;;;;;29.30;13.98;;;1.30;99.90;;;;;;5018208;28;20018;-78
2022/03/08 04:28:20;;;;;;;35.47;14.30;;;1.30;99.90;;;;;;5019013;28;20083;-77
2022/03/08 04:30:46;;;;;;;31.55;14.65;;;1.30;99.90;;;;;;5004748;28;20553;-78
2022/03/08 04:33:12;;;;;;;33.92;15.48;;;1.20;99.90;;;;;;5022954;28;20022;-77
2022/03/08 04:35:37;;;;;;;32.80;15.52;;;1.20;99.90;;;;;;5030374;28;20018;-81
2022/03/08 04:38:03;;;;;;;42.58;15.77;;;1.10;99.90;;;;;;5037578;28;20041;-78
2022/03/08 04:40:29;;;;;;;34.15;16.75;;;1.10;99.90;;;;;;5038366;28;20014;-78
2022/03/08 04:42:54;;;;;;;36.63;16.90;;;1.10;99.90;;;;;;5019685;28;20097;-78
2022/03/08 04:45:20;;;;;;;33.90;16.30;;;1.10;99.90;;;;;;5035393;28;20033;-75
2022/03/08 04:47:46;;;;;;;37.60;16.10;;;1.10;99.90;;;;;;5037343;28;20056;-77
2022/03/08 04:50:16;;;;;;;38.35;17.52;;;1.00;99.90;;;;;;5035284;28;20073;-76
2022/03/08 04:52:44;;;;;;;36.83;16.35;;;1.10;99.90;;;;;;5034109;28;20089;-78
2022/03/08 04:55:10;;;;;;;34.33;15.65;;;1.00;99.90;;;;;;5029571;28;20057;-79
2022/03/08 04:57:36;;;;;;;33.72;16.35;;;1.00;99.90;;;;;;5029315;28;20101;-75
2022/03/08 05:00:04;;;;;;;34.50;16.38;;;1.00;99.90;;;;;;5022326;28;20030;-77
2022/03/08 05:02:29;;;;;;;31.77;16.20;;;1.00;99.90;;;;;;5021476;28;20022;-76
2022/03/08 05:04:55;;;;;;;33.63;15.68;;;1.00;99.90;;;;;;5005984;28;20053;-76
2022/03/08 05:07:20;;;;;;;43.33;16.33;;;1.00;99.90;;;;;;5021486;28;20028;-77
2022/03/08 05:09:46;;;;;;;37.45;16.95;;;1.10;99.90;;;;;;5019479;28;20082;-76
2022/03/08 05:12:11;;;;;;;37.40;16.77;;;1.10;99.90;;;;;;4998177;28;20026;-75
2022/03/08 05:14:37;;;;;;;41.10;18.52;;;1.00;99.90;;;;;;5017440;28;20041;-76
2022/03/08 05:17:03;;;;;;;40.25;19.38;;;1.00;99.90;;;;;;4998445;28;20044;-78
2022/03/08 05:19:29;;;;;;;48.72;19.20;;;1.00;99.90;;;;;;5017235;28;20053;-78
2022/03/08 05:21:54;;;;;;;42.72;19.27;;;0.90;99.90;;;;;;5017130;28;20088;-76
2022/03/08 05:24:20;;;;;;;43.13;20.85;;;0.90;99.90;;;;;;5015997;28;20022;-76
2022/03/08 05:26:45;;;;;;;43.38;19.77;;;0.90;99.90;;;;;;5015940;28;20026;-76
2022/03/08 05:29:11;;;;;;;41.70;19.30;;;0.90;99.90;;;;;;5015013;28;20034;-75
2022/03/08 05:31:36;;;;;;;36.15;18.00;;;0.80;99.90;;;;;;5015349;28;20391;-77
2022/03/08 05:34:03;;;;;;;42.25;19.20;;;0.90;99.90;;;;;;5014685;28;20411;-77
2022/03/08 05:36:28;;;;;;;37.38;18.20;;;0.90;99.90;;;;;;5015170;28;20059;-78
2022/03/08 05:38:54;;;;;;;43.03;18.92;;;0.90;99.90;;;;;;5014987;28;20030;-76
2022/03/08 05:41:20;;;;;;;42.25;19.60;;;0.90;99.90;;;;;;5016047;28;20030;-76
2022/03/08 05:43:46;;;;;;;41.30;19.85;;;0.90;99.90;;;;;;5015837;28;20112;-77
2022/03/08 05:46:12;;;;;;;37.85;18.83;;;0.90;99.90;;;;;;5014292;28;20057;-75
2022/03/08 05:48:38;;;;;;;45.72;19.88;;;1.00;99.90;;;;;;5014600;28;20029;-77
2022/03/08 05:51:04;;;;;;;43.72;19.98;;;0.90;99.90;;;;;;5014582;28;20021;-76
2022/03/08 05:53:29;;;;;;;35.22;17.77;;;0.90;99.90;;;;;;5016349;28;20105;-75
2022/03/08 05:55:55;;;;;;;43.75;18.98;;;0.80;99.90;;;;;;5018110;28;20038;-77
2022/03/08 05:58:21;;;;;;;40.33;18.73;;;0.80;99.90;;;;;;5016284;28;20384;-77
2022/03/08 06:00:46;;;;;;;37.25;17.70;;;0.90;99.90;;;;;;5015407;28;20041;-77
2022/03/08 06:03:12;;;;;;;40.17;16.20;;;0.80;99.90;;;;;;5024592;28;20475;-76
2022/03/08 06:05:38;;;;;;;41.75;16.70;;;0.80;99.90;;;;;;5019200;28;20046;-76
2022/03/08 06:08:04;;;;;;;35.05;15.43;;;0.80;99.90;;;;;;5017516;28;20029;-76
2022/03/08 06:10:30;;;;;;;37.78;16.23;;;0.80;99.90;;;;;;5016705;28;20026;-76
2022/03/08 06:12:56;;;;;;;34.30;16.30;;;0.80;99.90;;;;;;5014206;28;20443;-76
2022/03/08 06:15:22;;;;;;;33.80;15.38;;;0.80;99.90;;;;;;5016977;28;20056;-75
2022/03/08 06:17:47;;;;;;;31.20;15.43;;;0.90;99.90;;;;;;5024711;28;20060;-76
2022/03/08 06:20:13;;;;;;;28.52;15.38;;;0.90;99.90;;;;;;5013809;28;20033;-77
2022/03/08 06:22:38;;;;;;;29.23;14.35;;;0.90;99.90;;;;;;5017514;28;20360;-75
2022/03/08 06:25:05;;;;;;;31.73;13.80;;;0.90;99.90;;;;;;5018126;28;20034;-75
2022/03/08 06:27:31;;;;;;;29.50;14.27;;;0.90;99.90;;;;;;5016225;28;20034;-77
2022/03/08 06:29:56;;;;;;;27.70;14.88;;;0.90;99.90;;;;;;5004534;28;20030;-76
2022/03/08 06:32:22;;;;;;;30.63;14.13;;;1.00;99.90;;;;;;5021536;28;20547;-75
2022/03/08 06:34:50;;;;;;;28.08;14.38;;;1.00;99.90;;;;;;5017188;28;20494;-75
2022/03/08 06:37:16;;;;;;;33.33;14.13;;;1.10;99.90;;;;;;5016043;28;20028;-76
2022/03/08 06:39:41;;;;;;;33.35;15.05;;;1.20;99.90;;;;;;5012993;28;20030;-75
2022/03/08 06:42:07;;;;;;;34.40;14.35;;;1.20;99.90;;;;;;5012951;28;20034;-76
2022/03/08 06:44:33;;;;;;;32.28;14.65;;;1.30;99.90;;;;;;5012996;28;20030;-76
2022/03/08 06:46:58;;;;;;;35.05;15.52;;;1.40;99.90;;;;;;5011483;28;20026;-77
2022/03/08 06:49:24;;;;;;;38.90;15.88;;;1.50;99.90;;;;;;5014148;28;20030;-77
2022/03/08 06:51:50;;;;;;;34.78;15.98;;;1.60;99.90;;;;;;5014285;28;20084;-77
2022/03/08 06:54:15;;;;;;;36.85;16.15;;;1.60;99.90;;;;;;5013415;28;20118;-76
2022/03/08 06:56:41;;;;;;;35.72;15.77;;;1.70;99.90;;;;;;5012857;28;20025;-76
2022/03/08 06:59:07;;;;;;;34.75;15.52;;;1.70;99.90;;;;;;5014880;28;20026;-78
2022/03/08 07:01:33;;;;;;;32.85;15.48;;;1.80;99.90;;;;;;5014583;28;20109;-76
2022/03/08 07:03:58;;;;;;;36.10;15.30;;;1.80;99.90;;;;;;5014197;28;20114;-76
2022/03/08 07:06:24;;;;;;;31.42;15.02;;;1.90;99.90;;;;;;5013579;28;20458;-77
2022/03/08 07:08:50;;;;;;;35.90;14.55;;;2.00;99.90;;;;;;5042388;23;20048;-75
2022/03/08 07:11:16;;;;;;;33.10;15.27;;;2.00;99.90;;;;;;5042765;28;20038;-75
2022/03/08 07:13:42;;;;;;;32.08;14.35;;;2.10;99.90;;;;;;5035132;28;20029;-75
2022/03/08 07:16:08;;;;;;;27.23;13.55;;;2.20;99.90;;;;;;5037755;28;20028;-75
2022/03/08 07:18:34;;;;;;;25.20;12.60;;;2.30;99.90;;;;;;5039396;28;20030;-76
2022/03/08 07:21:02;;;;;;;27.42;12.48;;;2.40;99.90;;;;;;5037553;28;20068;-76
2022/03/08 07:23:27;;;;;;;38.30;14.18;;;2.40;99.90;;;;;;5033674;28;20104;-76
2022/03/08 07:25:53;;;;;;;26.52;12.38;;;2.50;99.90;;;;;;5015845;28;20175;-75
2022/03/08 07:28:18;;;;;;;29.13;13.27;;;2.60;99.90;;;;;;5033164;28;20029;-77
2022/03/08 07:30:44;;;;;;;26.77;12.43;;;2.70;99.90;;;;;;5033832;28;20096;-75
2022/03/08 07:33:09;;;;;;;34.15;13.43;;;2.80;99.90;;;;;;5037403;28;20049;-76
2022/03/08 07:35:35;;;;;;;25.17;12.32;;;3.00;99.90;;;;;;5043761;28;20525;-75
2022/03/08 07:38:01;;;;;;;25.80;11.85;;;3.10;99.90;;;;;;5021893;28;20029;-75
2022/03/08 07:40:26;;;;;;;29.88;11.45;;;3.20;99.90;;;;;;5016004;28;20037;-77
2022/03/08 07:42:52;;;;;;;31.33;11.70;;;3.50;99.90;;;;;;5034455;28;20382;-76
2022/03/08 07:45:17;;;;;;;29.38;12.10;;;3.70;99.90;;;;;;5035900;28;20084;-75
2022/03/08 07:47:43;;;;;;;34.15;11.63;;;3.90;99.90;;;;;;5017139;28;20390;-75
2022/03/08 07:50:09;;;;;;;23.00;11.93;;;4.10;99.90;;;;;;5024023;28;20030;-76
2022/03/08 07:52:35;;;;;;;23.17;12.27;;;4.30;99.90;;;;;;5039400;28;20033;-77
2022/03/08 07:55:00;;;;;;;25.65;11.40;;;4.50;99.90;;;;;;5034239;28;20037;-77
2022/03/08 07:57:26;;;;;;;37.45;13.25;;;4.70;99.90;;;;;;5034702;28;20025;-77
2022/03/08 07:59:51;;;;;;;32.17;13.70;;;4.90;99.90;;;;;;5033645;28;20033;-77
2022/03/08 08:02:17;;;;;;;27.27;12.10;;;5.20;99.90;;;;;;5022040;28;20103;-75
2022/03/08 08:04:43;;;;;;;24.55;11.50;;;5.40;99.90;;;;;;5042347;28;20060;-75
2022/03/08 08:07:08;;;;;;;38.45;15.68;;;5.60;99.90;;;;;;5038717;28;20031;-76
2022/03/08 08:09:34;;;;;;;22.27;11.00;;;5.80;99.90;;;;;;5015044;28;20056;-75
2022/03/08 08:12:00;;;;;;;40.80;11.80;;;5.90;99.90;;;;;;5033099;28;20052;-76
2022/03/08 08:14:26;;;;;;;41.78;10.68;;;6.10;99.90;;;;;;5014686;28;20435;-76
2022/03/08 08:16:52;;;;;;;27.48;10.85;;;6.30;99.90;;;;;;5032089;28;20053;-76
2022/03/08 08:19:18;;;;;;;27.15;9.68;;;6.30;99.90;;;;;;5032067;28;20076;-76
2022/03/08 08:21:43;;;;;;;27.17;10.48;;;6.40;99.90;;;;;;5033352;28;20374;-77
2022/03/08 08:24:09;;;;;;;29.58;9.85;;;6.50;99.90;;;;;;5037410;28;20033;-77
2022/03/08 08:26:35;;;;;;;29.52;10.10;;;6.60;99.90;;;;;;5018523;28;20440;-75
2022/03/08 08:29:00;;;;;;;24.85;9.70;;;6.80;99.90;;;;;;5035599;28;20449;-77
2022/03/08 08:31:28;;;;;;;25.63;10.43;;;7.00;99.90;;;;;;5018939;28;20140;-76
2022/03/08 08:33:54;;;;;;;25.80;9.88;;;7.20;99.90;;;;;;5037166;28;20025;-76
2022/03/08 08:36:20;;;;;;;25.45;9.50;;;7.70;99.90;;;;;;5037378;28;20026;-76
2022/03/08 08:38:45;;;;;;;26.90;10.18;;;8.40;99.90;;;;;;5039779;28;20108;-77
2022/03/08 08:41:11;;;;;;;47.08;15.38;;;;;;;;;;5041667;28;20025;-76
2022/03/08 08:43:37;;;;;;;48.85;15.32;;;10.20;99.90;;;;;;5038240;28;20029;-77
2022/03/08 08:46:03;;;;;;;26.65;10.73;;;11.00;99.90;;;;;;5041544;28;20045;-77
2022/03/08 08:48:29;;;;;;;18.17;8.02;;;11.90;99.90;;;;;;5035504;28;20474;-75
2022/03/08 08:50:54;;;;;;;29.23;10.73;;;12.90;97.20;;;;;;5035226;28;20032;-76
2022/03/08 08:53:22;;;;;;;16.30;7.68;;;13.80;93.50;;;;;;5035156;28;20025;-76
2022/03/08 08:55:48;;;;;;;18.95;8.27;;;14.90;85.40;;;;;;5034887;28;20029;-76
2022/03/08 08:58:14;;;;;;;17.50;7.47;;;15.10;84.70;;;;;;5035180;28;20025;-77
2022/03/08 09:00:39;;;;;;;20.42;6.72;;;15.90;76.10;;;;;;5036149;28;20385;-77
2022/03/08 09:03:09;;;;;;;27.33;6.88;;;16.30;71.60;;;;;;5036779;28;20033;-77
2022/03/08 09:05:35;;;;;;;23.33;6.57;;;16.80;66.30;;;;;;5038909;28;20032;-77
2022/03/08 09:08:01;;;;;;;20.48;6.57;;;17.00;63.30;;;;;;5019095;28;20116;-76
2022/03/08 09:10:26;;;;;;;14.32;5.78;;;17.30;61.10;;;;;;5036377;28;20108;-79
2022/03/08 09:12:53;;;;;;;16.65;6.10;;;17.70;59.20;;;;;;5040162;28;20032;-78
2022/03/08 09:15:21;;;;;;;19.58;5.72;;;17.80;56.60;;;;;;5038012;28;20068;-76
2022/03/08 09:17:46;;;;;;;15.40;5.78;;;17.90;56.60;;;;;;5018378;28;20021;-75
2022/03/08 09:20:13;;;;;;;11.82;5.32;;;18.30;54.40;;;;;;5034617;28;20033;-74
2022/03/08 09:22:39;;;;;;;14.20;4.80;;;18.40;52.80;;;;;;5017466;28;20087;-75
2022/03/08 09:25:06;;;;;;;14.80;4.60;;;18.70;52.00;;;;;;5034771;28;20021;-77
2022/03/08 09:27:33;;;;;;;11.27;3.90;;;18.90;50.30;;;;;;5017105;28;20034;-75
2022/03/08 09:29:58;;;;;;;11.52;3.78;;;19.60;48.60;;;;;;5034617;28;20083;-75
2022/03/08 09:32:24;;;;;;;8.27;3.78;;;19.50;47.90;;;;;;5034585;28;20029;-76
2022/03/08 09:34:49;;;;;;;11.77;3.90;;;19.70;47.10;;;;;;5034098;28;20022;-75
2022/03/08 09:37:15;;;;;;;9.27;3.78;;;20.20;45.10;;;;;;5033847;28;20040;-76
2022/03/08 09:39:40;;;;;;;10.02;3.30;;;20.50;44.30;;;;;;5033859;28;20033;-75
2022/03/08 09:42:06;;;;;;;10.00;3.55;;;20.70;43.50;;;;;;5034123;28;20532;-75
2022/03/08 09:44:32;;;;;;;9.15;3.78;;;20.70;43.10;;;;;;5034241;28;20026;-75
2022/03/08 09:46:58;;;;;;;9.80;3.40;;;21.20;43.00;;;;;;5033665;28;20017;-75
2022/03/08 09:49:24;;;;;;;7.57;3.42;;;21.50;42.30;;;;;;5034155;28;20102;-77
2022/03/08 09:51:52;;;;;;;5.65;3.13;;;22.30;40.50;;;;;;5034393;28;20375;-76
2022/03/08 09:54:18;;;;;;;11.60;3.50;;;22.30;39.10;;;;;;5034910;28;20076;-75
2022/03/08 09:56:43;;;;;;;9.77;4.13;;;21.90;39.00;;;;;;5034984;28;20026;-76
2022/03/08 09:59:09;;;;;;;8.73;3.60;;;22.30;39.50;;;;;;5017510;28;20441;-76
2022/03/08 10:01:35;;;;;;;16.00;3.70;;;23.00;38.20;;;;;;5035238;28;20104;-78
2022/03/08 10:04:01;;;;;;;9.38;3.13;;;22.90;37.30;;;;;;5035390;28;20029;-77
2022/03/08 10:06:39;;;;;;;7.60;3.30;;;22.70;37.60;;;;;;5035949;28;20489;-79
2022/03/08 10:09:16;;;;;;;5.05;2.83;;;23.50;36.70;;;;;;5035961;28;20029;-78
2022/03/08 10:11:42;;;;;;;8.10;3.00;;;23.90;36.10;;;;;;5034118;28;20494;-77
2022/03/08 10:14:13;;;;;;;8.07;3.10;;;24.30;35.30;;;;;;5037504;28;20063;-76
2022/03/08 10:16:43;;;;;;;8.38;2.95;;;24.70;33.90;;;;;;5033851;28;20083;-78
2022/03/08 10:19:10;;;;;;;5.15;2.80;;;24.50;33.70;;;;;;5033068;28;20040;-77
2022/03/08 10:21:38;;;;;;;6.15;2.78;;;23.80;34.70;;;;;;5033543;28;20382;-76
2022/03/08 10:24:20;;;;;;;5.78;2.40;;;24.50;34.00;;;;;;5033256;28;20120;-75
2022/03/08 10:26:47;;;;;;;10.95;2.65;;;24.60;33.10;;;;;;5033525;28;20125;-78
2022/03/08 10:29:14;;;;;;;7.13;2.28;;;24.80;33.40;;;;;;5032621;28;20671;-77
2022/03/08 10:31:39;;;;;;;7.93;2.90;;;25.30;32.30;;;;;;5033361;28;20480;-77
2022/03/08 10:34:09;;;;;;;3.65;2.53;;;25.00;32.60;;;;;;5033877;28;20105;-76
2022/03/08 10:36:36;;;;;;;9.07;2.60;;;25.20;32.60;;;;;;5033868;28;20014;-76
2022/03/08 10:39:08;;;;;;;7.35;3.20;;;25.50;32.00;;;;;;5034435;28;20167;-76
2022/03/08 10:41:39;;;;;;;9.70;2.92;;;26.40;33.70;;;;;;5037771;28;20025;-77
2022/03/08 10:44:05;;;;;;;7.10;3.30;;;26.60;30.50;;;;;;5035781;28;20025;-77
2022/03/08 10:46:30;;;;;;;9.38;2.50;;;26.90;30.00;;;;;;5018506;28;20097;-76
2022/03/08 10:48:56;;;;;;;8.05;2.10;;;26.80;30.00;;;;;;5036116;28;20021;-76
2022/03/08 10:51:22;;;;;;;4.88;2.25;;;26.30;30.10;;;;;;5018338;28;20501;-75
2022/03/08 10:53:48;;;;;;;9.63;3.47;;;26.40;30.00;;;;;;5020021;28;20025;-76
2022/03/08 10:56:21;;;;;;;6.45;2.08;;;26.60;30.00;;;;;;5033964;28;20076;-75
2022/03/08 10:58:51;;;;;;;6.97;2.10;;;26.40;29.70;;;;;;5033857;28;20021;-76
2022/03/08 11:01:17;;;;;;;3.47;2.03;;;26.40;29.70;;;;;;5034742;28;20136;-77
2022/03/08 11:03:55;;;;;;;9.40;2.45;;;26.50;29.50;;;;;;5034870;28;20033;-76
2022/03/08 11:06:22;;;;;;;9.45;1.70;;;26.40;29.50;;;;;;5033260;28;20111;-75
2022/03/08 11:08:48;;;;;;;4.63;1.48;;;26.20;29.70;;;;;;5015094;28;20182;-76
2022/03/08 11:11:13;;;;;;;8.38;2.00;;;26.60;29.50;;;;;;5034461;28;20064;-76
2022/03/08 11:13:40;;;;;;;10.95;1.90;;;26.50;29.50;;;;;;5036395;28;20033;-77
2022/03/08 11:16:07;;;;;;;6.05;2.17;;;26.10;29.40;;;;;;5033581;28;20041;-74
2022/03/08 11:18:33;;;;;;;8.10;2.35;;;25.90;29.50;;;;;;5023840;28;20080;-74
2022/03/08 11:21:00;;;;;;;8.82;2.90;;;26.40;29.50;;;;;;5038623;28;20045;-75
2022/03/08 11:23:26;;;;;;;2.80;1.80;;;26.70;29.20;;;;;;5048205;28;20025;-76
2022/03/08 11:25:52;;;;;;;6.95;2.08;;;27.30;28.90;;;;;;5039466;28;20568;-76
2022/03/08 11:28:19;;;;;;;6.90;2.38;;;26.80;28.60;;;;;;5033686;28;20025;-77
2022/03/08 11:30:48;;;;;;;8.00;2.67;;;26.30;29.30;;;;;;5033656;28;20549;-77
2022/03/08 11:33:32;;;;;;;7.00;2.50;;;26.10;29.30;;;;;;5040829;28;20069;-76
2022/03/08 11:36:12;;;;;;;7.55;2.60;;;26.30;29.50;;;;;;5022747;28;20032;-76
2022/03/08 11:38:38;;;;;;;6.18;2.10;;;26.40;29.30;;;;;;5037520;28;20033;-76
2022/03/08 11:41:03;;;;;;;6.20;1.83;;;26.20;29.20;;;;;;5023558;28;20025;-76
2022/03/08 11:43:42;;;;;;;8.93;3.53;;;26.40;28.90;;;;;;5041593;28;20036;-76
2022/03/08 11:46:17;;;;;;;7.18;2.75;;;26.60;28.60;;;;;;5037603;28;20131;-77
2022/03/08 11:48:57;;;;;;;11.32;3.35;;;26.40;28.80;;;;;;5034932;28;20036;-77
2022/03/08 11:51:25;;;;;;;4.63;1.85;;;26.60;28.80;;;;;;5033301;28;20061;-77
2022/03/08 11:54:23;;;;;;;4.45;1.58;;;26.70;28.50;;;;;;5037441;28;20507;-77
2022/03/08 11:56:52;;;;;;;6.70;2.90;;;27.00;28.10;;;;;;5034867;28;20092;-77
2022/03/08 11:59:19;;;;;;;7.32;3.38;;;27.10;28.20;;;;;;5039090;28;20021;-77
2022/03/08 12:01:45;;;;;;;6.32;2.65;;;26.90;28.50;;;;;;5046578;28;20022;-76
2022/03/08 12:04:20;;;;;;;3.47;1.40;;;26.70;29.20;;;;;;5044054;28;20087;-77
2022/03/08 12:06:54;;;;;;;5.30;1.77;;;27.30;28.10;;;;;;5036405;28;20100;-77
2022/03/08 12:09:22;;;;;;;4.25;1.95;;;26.90;28.50;;;;;;5036764;28;20536;-76
2022/03/08 12:11:51;;;;;;;4.45;2.63;;;26.90;28.00;;;;;;5036431;28;20430;-75
2022/03/08 12:14:19;;;;;;;6.78;2.35;;;27.20;28.10;;;;;;5036205;28;20017;-77
2022/03/08 12:16:48;;;;;;;8.10;2.33;;;27.00;28.50;;;;;;5037298;28;20025;-77
2022/03/08 12:19:39;;;;;;;2.95;2.15;;;26.90;28.50;;;;;;5037691;28;20025;-75
2022/03/08 12:22:11;;;;;;;7.55;2.50;;;26.90;28.50;;;;;;5037309;28;20108;-76
2022/03/08 12:24:51;;;;;;;3.40;1.77;;;26.70;28.60;;;;;;5019291;28;20037;-75
2022/03/08 12:27:19;;;;;;;2.63;1.60;;;27.20;28.30;;;;;;5042829;28;20434;-75
2022/03/08 12:30:03;;;;;;;7.60;2.00;;;27.10;28.00;;;;;;5047993;28;20064;-75
2022/03/08 12:32:32;;;;;;;5.40;2.25;;;27.50;28.10;;;;;;5040357;28;20060;-76
2022/03/08 12:35:02;;;;;;;4.07;1.50;;;27.50;28.90;;;;;;5039116;28;20025;-76
2022/03/08 12:37:42;;;;;;;3.55;1.95;;;27.70;27.50;;;;;;5036189;28;20013;-77